Time;durP1;ratioP1;P1;durP2;ratioP2;P2;SDS_P1;SDS_P2;PMS_P1;PMS_P2;Temp;Humidity;BMP_temperature;BMP_pressure;BME280_temperature;BME280_humidity;BME280_pressure;Samples;Min_cycle;Max_cycle;Signal;HPM_P1;HPM_P2
2023/06/16 00:00:10;;;;;;;12.15;5.45;;;;;;;19.76;51.58;100104.25;5042751;28;20029;-80
2023/06/16 00:02:35;;;;;;;10.93;5.18;;;;;;;19.77;50.54;100103.91;5039124;28;20025;-79
2023/06/16 00:05:01;;;;;;;7.80;4.85;;;;;;;19.87;49.93;100102.81;5046451;28;20044;-78
2023/06/16 00:07:31;;;;;;;8.73;4.50;;;;;;;19.85;50.13;100107.88;5047582;28;20037;-78
2023/06/16 00:09:56;;;;;;;8.70;4.85;;;;;;;19.78;50.13;100099.19;5040870;28;20029;-79
2023/06/16 00:12:21;;;;;;;13.55;5.82;;;;;;;19.75;50.10;100099.84;5045144;28;20032;-78
2023/06/16 00:14:47;;;;;;;10.00;5.00;;;;;;;19.59;50.80;100094.72;5052230;28;20474;-79
2023/06/16 00:17:13;;;;;;;16.30;7.50;;;;;;;19.56;50.99;100098.97;5035711;28;20025;-78
2023/06/16 00:19:40;;;;;;;10.25;5.63;;;;;;;19.50;51.38;100099.41;5037865;28;20108;-79
2023/06/16 00:22:06;;;;;;;12.70;5.75;;;;;;;19.44;51.32;100095.97;5042377;28;20033;-79
2023/06/16 00:24:32;;;;;;;8.75;5.22;;;;;;;19.38;51.20;100098.06;5038903;28;20033;-78
2023/06/16 00:26:57;;;;;;;10.07;4.68;;;;;;;19.27;51.40;100099.44;5032698;28;20496;-79
2023/06/16 00:29:23;;;;;;;10.80;4.53;;;;;;;19.14;51.29;100093.66;5042407;28;20116;-79
2023/06/16 00:31:48;;;;;;;9.03;4.77;;;;;;;19.05;51.44;100101.88;5044268;28;20666;-78
2023/06/16 00:34:13;;;;;;;8.85;4.75;;;;;;;19.01;51.27;100101.69;5042720;28;20350;-79
2023/06/16 00:36:39;;;;;;;23.30;6.57;;;;;;;18.96;51.17;100103.75;5049570;28;20030;-78
2023/06/16 00:39:04;;;;;;;9.77;4.10;;;;;;;18.94;51.86;100100.47;5036349;28;20612;-78
2023/06/16 00:41:29;;;;;;;7.57;4.00;;;;;;;18.88;51.49;100102.56;5036612;28;20258;-79
2023/06/16 00:43:55;;;;;;;9.90;5.07;;;;;;;18.85;51.60;100097.66;5036538;28;20897;-79
2023/06/16 00:46:32;;;;;;;8.82;4.30;;;;;;;18.96;51.27;100093.53;5049674;28;20029;-79
2023/06/16 00:48:58;;;;;;;8.30;4.43;;;;;;;18.99;51.66;100095.66;5042833;28;20029;-79
2023/06/16 00:51:26;;;;;;;11.18;5.38;;;;;;;18.95;51.68;100097.44;5046636;28;20705;-79
2023/06/16 00:53:52;;;;;;;9.82;5.45;;;;;;;18.86;51.95;100102.06;5036880;28;20535;-79
2023/06/16 00:56:21;;;;;;;9.45;4.90;;;;;;;18.78;51.80;100098.91;5044274;28;20025;-79
2023/06/16 00:58:50;;;;;;;11.35;4.93;;;;;;;18.73;52.09;100099.03;5041723;28;20032;-78
2023/06/16 01:01:15;;;;;;;10.80;5.07;;;;;;;18.68;52.37;100093.63;5035697;28;20051;-73
2023/06/16 01:03:40;;;;;;;8.98;5.43;;;;;;;18.64;52.57;100092.63;5034987;28;20463;-73
2023/06/16 01:06:15;;;;;;;11.63;5.90;;;;;;;18.59;52.37;100092.75;5039567;28;20187;-73
2023/06/16 01:08:49;;;;;;;10.35;4.97;;;;;;;18.53;52.77;100090.09;5041803;28;20049;-72
2023/06/16 01:11:33;;;;;;;9.90;5.80;;;;;;;18.49;52.89;100085.53;5037983;28;20072;-73
2023/06/16 01:14:07;;;;;;;;;;;;;;;18.26;53.75;100096.50;5035264;28;20382;-73
2023/06/16 01:16:35;;;;;;;10.30;5.40;;;;;;;18.36;53.81;100098.22;5033604;28;19966;-73
2023/06/16 01:19:08;;;;;;;10.18;5.72;;;;;;;18.34;53.92;100095.78;5042192;28;20036;-73
2023/06/16 01:22:03;;;;;;;9.50;6.03;;;;;;;18.37;53.62;100095.16;5044741;28;20493;-73
2023/06/16 01:24:32;;;;;;;9.43;5.90;;;;;;;18.34;54.11;100083.91;5010697;28;20076;-73
2023/06/16 01:26:59;;;;;;;15.55;6.50;;;;;;;18.39;53.54;100090.13;5046733;28;20040;-73
2023/06/16 01:29:26;;;;;;;11.32;5.50;;;;;;;18.37;54.16;100088.78;5041743;28;20409;-73
2023/06/16 01:31:54;;;;;;;9.93;6.25;;;;;;;18.39;53.98;100090.13;5038749;28;20049;-73
2023/06/16 01:34:20;;;;;;;10.73;5.85;;;;;;;18.35;53.90;100100.16;5041728;28;20030;-73
2023/06/16 01:36:47;;;;;;;8.57;5.55;;;;;;;18.24;54.06;100105.09;5039286;28;20025;-73
2023/06/16 01:39:15;;;;;;;8.65;4.72;;;;;;;18.23;54.09;100105.38;5039196;28;20383;-72
2023/06/16 01:41:41;;;;;;;14.68;6.18;;;;;;;18.19;54.45;100105.19;5047704;28;20028;-72
2023/06/16 01:44:07;;;;;;;19.00;5.63;;;;;;;18.12;54.68;100099.25;5048118;28;20108;-73
2023/06/16 01:46:33;;;;;;;13.40;5.72;;;;;;;18.12;54.67;100099.25;5052875;28;20102;-73
2023/06/16 01:48:59;;;;;;;9.00;5.63;;;;;;;18.08;54.73;100097.09;5047089;28;20030;-73
2023/06/16 01:51:25;;;;;;;11.50;6.20;;;;;;;18.11;54.88;100092.09;5043153;28;20031;-74
2023/06/16 01:53:53;;;;;;;9.82;6.05;;;;;;;18.02;55.73;100087.28;5050138;28;20107;-73
2023/06/16 01:56:19;;;;;;;15.73;6.53;;;;;;;18.00;55.65;100092.28;5050278;28;20111;-73
2023/06/16 01:58:44;;;;;;;13.50;6.75;;;;;;;18.01;55.35;100088.41;5032823;28;20164;-72
2023/06/16 02:01:23;;;;;;;11.23;6.68;;;;;;;17.98;55.19;100089.03;5040834;28;20679;-73
2023/06/16 02:04:15;;;;;;;12.85;6.40;;;;;;;17.88;55.60;100087.28;5052841;28;20025;-73
2023/06/16 02:06:47;;;;;;;11.15;6.97;;;;;;;17.97;55.43;100092.91;5051269;28;20033;-73
2023/06/16 02:09:15;;;;;;;10.68;7.22;;;;;;;17.95;55.55;100084.13;5035389;28;20033;-72
2023/06/16 02:11:42;;;;;;;11.70;6.50;;;;;;;17.87;55.40;100093.13;5049675;28;20032;-73
2023/06/16 02:14:09;;;;;;;17.83;6.32;;;;;;;17.76;55.58;100090.56;5033718;28;20609;-78
2023/06/16 02:16:42;;;;;;;13.93;7.57;;;;;;;17.72;55.19;100095.06;5040888;28;20159;-79
2023/06/16 02:19:08;;;;;;;9.95;6.00;;;;;;;17.67;55.39;100092.41;5038727;28;20112;-78
2023/06/16 02:21:33;;;;;;;8.40;6.40;;;;;;;17.63;56.06;100094.97;5036141;28;20163;-79
2023/06/16 02:23:58;;;;;;;12.73;6.70;;;;;;;17.63;56.13;100097.72;5033973;28;20025;-73
2023/06/16 02:26:24;;;;;;;10.95;6.53;;;;;;;17.62;55.45;100094.13;5037794;28;20029;-74
2023/06/16 02:28:50;;;;;;;10.38;6.00;;;;;;;17.61;55.57;100094.44;5040268;28;20044;-74
2023/06/16 02:31:19;;;;;;;12.05;5.95;;;;;;;17.57;55.67;100091.50;5049587;28;20025;-73
2023/06/16 02:33:45;;;;;;;7.50;4.72;;;;;;;17.53;56.00;100090.47;5033983;28;20025;-75
2023/06/16 02:36:10;;;;;;;11.40;5.40;;;;;;;17.51;55.76;100087.19;5041187;28;20526;-73
2023/06/16 02:38:36;;;;;;;13.05;5.25;;;;;;;17.54;55.76;100089.31;5031660;28;20048;-74
2023/06/16 02:41:01;;;;;;;9.65;6.18;;;;;;;17.55;55.74;100087.38;5040679;28;20022;-73
2023/06/16 02:43:26;;;;;;;11.80;6.00;;;;;;;17.51;55.74;100081.69;5031927;28;20399;-73
2023/06/16 02:45:52;;;;;;;10.33;6.10;;;;;;;17.50;56.07;100080.84;5043099;28;20059;-73
2023/06/16 02:48:17;;;;;;;9.93;6.00;;;;;;;17.53;56.08;100089.63;5031661;28;20255;-73
2023/06/16 02:50:42;;;;;;;11.40;6.07;;;;;;;17.49;55.86;100083.91;5044223;28;20055;-75
2023/06/16 02:53:08;;;;;;;11.15;5.70;;;;;;;17.46;56.29;100085.34;5035849;28;20341;-72
2023/06/16 02:55:35;;;;;;;14.45;4.43;;;;;;;17.42;56.03;100078.78;5040183;28;20075;-74
2023/06/16 02:58:00;;;;;;;11.63;6.10;;;;;;;17.42;56.29;100081.56;5043054;28;20025;-74
2023/06/16 03:00:25;;;;;;;10.25;6.28;;;;;;;17.40;56.49;100081.03;5031510;28;20100;-73
2023/06/16 03:02:51;;;;;;;9.40;5.50;;;;;;;17.39;55.81;100080.22;5042026;28;20071;-74
2023/06/16 03:05:18;;;;;;;14.77;6.40;;;;;;;17.32;56.16;100074.28;5038303;28;20281;-73
2023/06/16 03:07:44;;;;;;;14.68;5.78;;;;;;;17.34;55.92;100085.81;5042460;28;20071;-73
2023/06/16 03:10:10;;;;;;;9.40;5.85;;;;;;;17.31;56.11;100082.88;5036357;28;20093;-73
2023/06/16 03:12:35;;;;;;;9.70;5.72;;;;;;;17.38;55.87;100078.59;5047150;28;20475;-73
2023/06/16 03:15:01;;;;;;;10.87;5.67;;;;;;;17.38;55.87;100084.09;5040077;28;20040;-73
2023/06/16 03:17:26;;;;;;;14.37;7.20;;;;;;;17.53;55.20;100084.94;5049022;28;20021;-73
2023/06/16 03:19:51;;;;;;;11.33;5.73;;;;;;;17.47;55.48;100083.41;5038644;28;20258;-75
2023/06/16 03:22:16;;;;;;;12.18;7.13;;;;;;;17.43;55.83;100085.13;5041357;28;20029;-74
2023/06/16 03:24:43;;;;;;;9.73;6.50;;;;;;;17.26;56.69;100083.75;5040406;28;20039;-74
2023/06/16 03:27:09;;;;;;;9.40;6.15;;;;;;;17.20;56.75;100082.22;5051211;28;20032;-73
2023/06/16 03:29:35;;;;;;;13.48;6.47;;;;;;;17.15;57.30;100086.69;5031177;28;20029;-74
2023/06/16 03:32:01;;;;;;;19.65;6.28;;;;;;;17.19;57.54;100088.84;5040850;28;21156;-73
2023/06/16 03:34:29;;;;;;;9.35;5.47;;;;;;;17.26;57.52;100092.03;5044446;28;20033;-74
2023/06/16 03:36:54;;;;;;;16.85;6.68;;;;;;;17.35;57.06;100081.94;5039722;28;21175;-73
2023/06/16 03:39:20;;;;;;;10.30;5.57;;;;;;;17.35;57.03;100084.69;5038956;28;20079;-73
2023/06/16 03:41:45;;;;;;;9.35;6.13;;;;;;;17.36;56.80;100080.00;5042024;28;20132;-73
2023/06/16 03:44:11;;;;;;;9.30;5.67;;;;;;;17.34;57.14;100082.25;5050971;28;20043;-73
2023/06/16 03:46:36;;;;;;;10.38;5.32;;;;;;;17.30;57.07;100087.56;5048583;28;20017;-73
2023/06/16 03:49:01;;;;;;;11.50;6.55;;;;;;;17.28;57.35;100089.78;5041448;28;20376;-73
2023/06/16 03:51:27;;;;;;;9.30;5.15;;;;;;;17.33;57.57;100094.41;5048765;28;20029;-73
2023/06/16 03:53:52;;;;;;;10.85;5.10;;;;;;;17.34;57.24;100094.09;5050863;28;20041;-73
2023/06/16 03:56:19;;;;;;;9.53;5.27;;;;;;;17.44;56.99;100097.78;5050805;28;20029;-73
2023/06/16 03:58:44;;;;;;;10.52;6.15;;;;;;;17.52;56.87;100088.81;5039270;28;20312;-73
2023/06/16 04:01:10;;;;;;;12.75;7.00;;;;;;;17.63;56.56;100089.44;5036433;28;20021;-74
2023/06/16 04:03:35;;;;;;;13.32;6.78;;;;;;;17.52;57.11;100087.97;5042310;28;20033;-73
2023/06/16 04:06:02;;;;;;;9.25;6.60;;;;;;;17.55;57.49;100090.16;5044006;28;20073;-74
2023/06/16 04:08:27;;;;;;;13.80;5.82;;;;;;;17.59;57.39;100094.72;5047058;28;20052;-73
2023/06/16 04:10:58;;;;;;;12.32;6.95;;;;;;;17.62;57.06;100091.38;5036316;28;20690;-73
2023/06/16 04:13:24;;;;;;;9.88;5.65;;;;;;;17.76;56.38;100087.81;5048650;28;20029;-76
2023/06/16 04:15:49;;;;;;;9.23;5.28;;;;;;;17.76;56.46;100090.56;5052723;28;20108;-72
2023/06/16 04:18:15;;;;;;;14.27;6.25;;;;;;;17.77;56.80;100094.97;5040258;28;20499;-73
2023/06/16 04:20:40;;;;;;;17.38;7.15;;;;;;;17.88;56.55;100089.25;5040895;28;20545;-73
2023/06/16 04:23:09;;;;;;;6.90;4.25;;;;;;;18.04;54.72;100093.31;5045826;28;20029;-73
2023/06/16 04:25:35;;;;;;;12.90;5.00;;;;;;;18.09;53.96;100086.88;5037015;28;20422;-73
2023/06/16 04:28:02;;;;;;;6.25;3.90;;;;;;;18.11;53.84;100081.88;5043432;28;20029;-73
2023/06/16 04:30:30;;;;;;;10.70;5.32;;;;;;;18.21;53.34;100091.91;5039110;28;20136;-73
2023/06/16 04:32:58;;;;;;;9.23;4.57;;;;;;;18.38;53.01;100076.66;5039519;28;20087;-80
2023/06/16 04:35:27;;;;;;;10.43;5.05;;;;;;;18.38;53.18;100082.16;5042339;28;20029;-75
2023/06/16 04:37:53;;;;;;;10.18;4.65;;;;;;;18.49;53.11;100078.03;5044977;28;20070;-75
2023/06/16 04:40:19;;;;;;;8.77;4.78;;;;;;;18.62;53.00;100081.06;5037329;28;20380;-73
2023/06/16 04:42:44;;;;;;;7.28;4.20;;;;;;;18.61;52.90;100083.00;5044116;28;20035;-73
2023/06/16 04:45:10;;;;;;;5.93;3.83;;;;;;;18.71;52.65;100076.47;5042560;28;20029;-74
2023/06/16 04:47:35;;;;;;;11.07;6.78;;;;;;;18.72;52.61;100083.59;5037260;28;20115;-74
2023/06/16 04:50:01;;;;;;;14.27;6.00;;;;;;;18.70;53.52;100083.09;5045598;28;20029;-73
2023/06/16 04:52:26;;;;;;;8.98;4.97;;;;;;;18.80;53.62;100084.78;5038923;28;20029;-75
2023/06/16 04:54:53;;;;;;;10.33;5.70;;;;;;;18.79;54.57;100081.22;5039950;28;20389;-74
2023/06/16 04:57:19;;;;;;;7.72;4.78;;;;;;;18.76;54.75;100084.59;5042040;28;20275;-75
2023/06/16 04:59:44;;;;;;;8.13;5.40;;;;;;;18.74;54.72;100077.75;5036872;28;20108;-74
2023/06/16 05:02:10;;;;;;;13.97;6.03;;;;;;;18.72;54.74;100072.56;5044822;28;20485;-74
2023/06/16 05:04:35;;;;;;;9.00;5.47;;;;;;;18.67;54.77;100081.75;5042905;28;20297;-73
2023/06/16 05:07:00;;;;;;;9.60;5.43;;;;;;;18.58;55.42;100075.38;5040640;28;20265;-75
2023/06/16 05:09:26;;;;;;;8.20;5.33;;;;;;;18.47;56.77;100076.75;5043500;28;20578;-73
2023/06/16 05:11:52;;;;;;;10.60;6.27;;;;;;;18.49;57.43;100083.56;5047216;28;20265;-73
2023/06/16 05:14:17;;;;;;;13.13;6.30;;;;;;;18.58;57.48;100091.09;5053560;28;20764;-74
2023/06/16 05:16:42;;;;;;;15.18;7.05;;;;;;;18.55;58.64;100085.09;5049978;28;20029;-74
2023/06/16 05:19:07;;;;;;;11.07;6.37;;;;;;;18.59;58.43;100087.22;5045188;28;20382;-74
2023/06/16 05:21:33;;;;;;;12.75;5.93;;;;;;;18.76;58.18;100084.59;5046937;28;20266;-74
2023/06/16 05:23:58;;;;;;;11.07;6.77;;;;;;;18.83;58.14;100077.84;5041785;28;20055;-74
2023/06/16 05:26:25;;;;;;;10.93;5.53;;;;;;;18.84;57.89;100085.81;5039765;28;20612;-73
2023/06/16 05:28:51;;;;;;;11.70;7.32;;;;;;;18.86;58.33;100082.72;5034207;28;20036;-75
2023/06/16 05:31:16;;;;;;;13.38;6.63;;;;;;;18.90;58.51;100083.72;5040854;28;20025;-74
2023/06/16 05:33:41;;;;;;;10.52;7.05;;;;;;;18.95;58.31;100086.38;5041047;28;20455;-75
2023/06/16 05:36:06;;;;;;;15.37;7.27;;;;;;;18.94;58.54;100078.38;5043197;28;20021;-74
2023/06/16 05:38:33;;;;;;;13.52;6.97;;;;;;;18.94;58.45;100070.91;5043513;28;20274;-74
2023/06/16 05:40:58;;;;;;;11.82;6.78;;;;;;;19.00;57.50;100069.66;5049526;28;20147;-74
2023/06/16 05:43:23;;;;;;;11.47;5.73;;;;;;;19.06;57.18;100075.06;5037265;28;20108;-81
2023/06/16 05:45:48;;;;;;;9.97;5.37;;;;;;;19.13;56.73;100070.75;5041415;28;20626;-81
2023/06/16 05:48:14;;;;;;;10.50;6.33;;;;;;;19.19;55.96;100067.84;5043187;28;20274;-80
2023/06/16 05:50:40;;;;;;;11.47;7.20;;;;;;;19.35;55.17;100071.84;5041581;28;20030;-81
2023/06/16 05:53:05;;;;;;;16.08;6.70;;;;;;;19.51;54.27;100081.66;5042039;28;20262;-80
2023/06/16 05:55:31;;;;;;;11.05;7.22;;;;;;;19.52;55.11;100080.56;5045304;28;20043;-80
2023/06/16 05:57:57;;;;;;;11.60;6.53;;;;;;;19.48;56.04;100078.44;5038111;28;20108;-80
2023/06/16 06:00:22;;;;;;;11.07;6.43;;;;;;;19.48;54.27;100075.69;5043778;28;20108;-80
2023/06/16 06:02:47;;;;;;;10.80;6.00;;;;;;;19.43;52.04;100078.56;5042983;28;20025;-80
2023/06/16 06:05:13;;;;;;;11.47;7.63;;;;;;;19.59;50.91;100089.19;5052203;28;20043;-80
2023/06/16 06:07:38;;;;;;;8.77;5.63;;;;;;;19.57;51.57;100083.16;5039666;28;20033;-80
2023/06/16 06:10:03;;;;;;;11.60;6.17;;;;;;;19.61;51.33;100084.16;5039092;28;20021;-81
2023/06/16 06:12:29;;;;;;;12.98;7.65;;;;;;;19.65;51.76;100092.66;5041332;28;20338;-79
2023/06/16 06:14:54;;;;;;;13.15;6.82;;;;;;;19.70;51.17;100095.28;5036820;28;20051;-80
2023/06/16 06:17:19;;;;;;;13.97;6.77;;;;;;;19.75;51.33;100102.63;5045489;28;21317;-83
2023/06/16 06:19:45;;;;;;;13.73;5.63;;;;;;;19.80;51.02;100096.94;5047433;28;20053;-81
2023/06/16 06:22:10;;;;;;;13.73;6.33;;;;;;;20.00;49.82;100097.47;5046347;28;20036;-81
2023/06/16 06:24:35;;;;;;;15.73;5.97;;;;;;;20.06;49.77;100107.25;5038008;28;20036;-81
2023/06/16 06:27:00;;;;;;;16.70;7.73;;;;;;;20.09;48.83;100092.84;5041096;28;20063;-73
2023/06/16 06:29:26;;;;;;;12.43;5.88;;;;;;;20.13;48.77;100104.06;5035309;28;20036;-76
2023/06/16 06:31:51;;;;;;;11.77;5.28;;;;;;;20.23;47.36;100108.47;5035506;28;20067;-76
2023/06/16 06:34:16;;;;;;;22.33;5.00;;;;;;;20.21;47.38;100116.28;5034060;28;20041;-75
2023/06/16 06:36:42;;;;;;;8.53;4.50;;;;;;;20.19;47.77;100111.09;5035121;28;20045;-76
2023/06/16 06:39:08;;;;;;;11.80;5.63;;;;;;;20.23;47.37;100119.56;5035694;28;20336;-76
2023/06/16 06:41:34;;;;;;;9.60;4.90;;;;;;;20.22;46.77;100118.72;5039961;28;20034;-81
2023/06/16 06:44:00;;;;;;;8.50;5.15;;;;;;;20.20;46.17;100122.97;5042452;28;20075;-81
2023/06/16 06:46:25;;;;;;;8.38;4.78;;;;;;;20.34;46.08;100120.88;5042091;28;20049;-81
2023/06/16 06:48:51;;;;;;;9.43;4.75;;;;;;;20.40;46.55;100122.34;5041406;28;20397;-81
2023/06/16 06:51:16;;;;;;;8.98;5.00;;;;;;;20.47;46.15;100123.81;5043989;28;20103;-81
2023/06/16 06:53:44;;;;;;;10.03;6.07;;;;;;;20.46;46.58;100119.44;5041540;28;20644;-75
2023/06/16 06:56:09;;;;;;;12.82;4.55;;;;;;;20.49;46.99;100124.31;5043732;28;20341;-74
2023/06/16 06:58:35;;;;;;;16.08;5.30;;;;;;;20.45;47.13;100126.09;5033655;28;20155;-75
2023/06/16 07:01:00;;;;;;;13.65;4.90;;;;;;;20.53;46.71;100122.53;5037779;28;20029;-71
2023/06/16 07:03:26;;;;;;;11.15;5.72;;;;;;;20.57;47.13;100122.69;5033362;28;20072;-74
2023/06/16 07:05:52;;;;;;;12.63;5.53;;;;;;;20.45;47.22;100132.47;5033411;28;20583;-74
2023/06/16 07:08:17;;;;;;;11.57;5.22;;;;;;;20.44;46.70;100130.03;5032489;28;20072;-74
2023/06/16 07:10:42;;;;;;;10.77;5.13;;;;;;;20.60;45.97;100122.06;5033170;28;20033;-73
2023/06/16 07:13:08;;;;;;;12.37;4.80;;;;;;;20.64;45.02;100128.59;5033548;28;20258;-73
2023/06/16 07:15:33;;;;;;;11.10;5.22;;;;;;;20.62;45.45;100131.69;5033127;28;21320;-74
2023/06/16 07:17:58;;;;;;;11.02;4.88;;;;;;;20.64;44.89;100129.38;5033081;28;20083;-72
2023/06/16 07:20:24;;;;;;;10.77;5.17;;;;;;;20.68;45.10;100137.06;5032966;28;20032;-72
2023/06/16 07:22:49;;;;;;;10.57;4.53;;;;;;;20.72;44.17;100135.25;5032431;28;20258;-72
2023/06/16 07:25:15;;;;;;;9.47;4.43;;;;;;;20.74;44.78;100139.34;5032398;28;20045;-72
2023/06/16 07:27:41;;;;;;;8.20;3.53;;;;;;;20.81;44.57;100143.59;5032937;28;20328;-73
2023/06/16 07:30:07;;;;;;;11.52;4.45;;;;;;;20.83;44.56;100132.97;5032271;28;20041;-73
2023/06/16 07:32:32;;;;;;;7.00;3.70;;;;;;;20.84;44.61;100132.66;5031950;28;20036;-73
2023/06/16 07:34:58;;;;;;;9.90;4.88;;;;;;;20.85;44.46;100133.47;5032631;28;20047;-72
2023/06/16 07:37:23;;;;;;;9.03;4.73;;;;;;;20.74;43.62;100136.59;5032256;28;20032;-72
2023/06/16 07:39:48;;;;;;;7.65;3.85;;;;;;;20.88;44.05;100133.66;5031958;28;20356;-73
2023/06/16 07:42:15;;;;;;;13.03;3.63;;;;;;;21.02;43.39;100138.22;5032491;28;20120;-72
2023/06/16 07:44:41;;;;;;;10.02;3.97;;;;;;;21.11;41.70;100141.00;5032336;28;20262;-71
2023/06/16 07:47:06;;;;;;;9.10;4.47;;;;;;;21.15;40.89;100141.97;5032560;28;21332;-72
2023/06/16 07:49:31;;;;;;;7.95;4.00;;;;;;;21.18;41.01;100134.94;5031441;28;21169;-72
2023/06/16 07:51:56;;;;;;;10.07;4.50;;;;;;;21.17;40.77;100141.63;5032601;28;20043;-72
2023/06/16 07:54:22;;;;;;;6.85;3.40;;;;;;;21.08;39.42;100133.31;5033369;28;20090;-72
2023/06/16 07:56:48;;;;;;;7.22;3.92;;;;;;;21.14;40.61;100129.25;5032352;28;20041;-73
2023/06/16 07:59:13;;;;;;;9.25;4.35;;;;;;;21.11;39.21;100136.25;5031466;28;20037;-72
2023/06/16 08:01:42;;;;;;;8.43;3.97;;;;;;;21.23;39.58;100132.00;5032286;28;20035;-71
2023/06/16 08:04:07;;;;;;;7.32;3.55;;;;;;;21.35;39.58;100128.56;5032468;28;20033;-72
2023/06/16 08:06:32;;;;;;;5.47;3.03;;;;;;;21.42;38.63;100130.81;5032350;28;20045;-73
2023/06/16 08:08:58;;;;;;;6.40;3.60;;;;;;;21.48;37.96;100129.50;5031528;28;20457;-74
2023/06/16 08:11:23;;;;;;;6.70;3.40;;;;;;;21.54;36.66;100124.59;5032439;28;20258;-73
2023/06/16 08:13:48;;;;;;;6.53;3.77;;;;;;;21.58;36.60;100120.81;5032287;28;20825;-73
2023/06/16 08:16:13;;;;;;;17.40;4.90;;;;;;;21.62;34.77;100120.97;5031572;28;20091;-73
2023/06/16 08:18:39;;;;;;;6.40;3.05;;;;;;;21.70;35.70;100111.00;5031795;28;20059;-73
2023/06/16 08:21:06;;;;;;;7.87;3.83;;;;;;;21.73;35.68;100117.84;5032669;28;20708;-73
2023/06/16 08:23:31;;;;;;;6.28;3.42;;;;;;;21.80;35.64;100115.38;5033323;28;20246;-73
2023/06/16 08:25:57;;;;;;;6.07;3.80;;;;;;;21.91;34.96;100115.81;5033539;28;20068;-73
2023/06/16 08:28:22;;;;;;;7.07;3.13;;;;;;;21.97;34.17;100117.28;5032543;28;20255;-73
2023/06/16 08:30:47;;;;;;;7.07;3.50;;;;;;;22.05;33.30;100115.59;5032342;28;20263;-72
2023/06/16 08:33:13;;;;;;;8.38;3.20;;;;;;;22.16;33.89;100104.94;5032361;28;20044;-72
2023/06/16 08:35:38;;;;;;;8.40;3.20;;;;;;;22.16;33.01;100116.03;5032197;28;20065;-71
2023/06/16 08:38:05;;;;;;;6.30;2.93;;;;;;;22.21;31.88;100107.50;5031646;28;20041;-72
2023/06/16 08:40:30;;;;;;;8.57;3.03;;;;;;;22.27;32.40;100105.38;5032348;28;20353;-72
2023/06/16 08:42:56;;;;;;;9.17;3.30;;;;;;;22.30;32.39;100106.63;5032351;28;20132;-72
2023/06/16 08:45:23;;;;;;;7.22;3.35;;;;;;;22.40;33.70;100109.00;5032639;28;21080;-72
2023/06/16 08:47:49;;;;;;;16.95;3.58;;;;;;;22.53;33.08;100109.09;5032290;28;20033;-72
2023/06/16 08:50:19;;;;;;;6.13;3.08;;;;;;;22.62;32.88;100104.28;5032150;28;20034;-72
2023/06/16 08:52:46;;;;;;;9.23;3.53;;;;;;;22.68;32.69;100094.63;5035898;28;20068;-73
2023/06/16 08:55:14;;;;;;;6.15;2.78;;;;;;;22.77;32.88;100100.09;5035985;28;20037;-73
2023/06/16 08:57:49;;;;;;;7.93;3.45;;;;;;;22.92;33.51;100104.25;5035902;28;20108;-73
2023/06/16 09:00:15;;;;;;;9.90;3.35;;;;;;;23.03;33.12;100112.13;5035403;28;20041;-71
2023/06/16 09:02:41;;;;;;;8.27;3.40;;;;;;;23.10;33.05;100098.50;5035499;28;20478;-73
2023/06/16 09:05:08;;;;;;;9.80;3.42;;;;;;;23.20;31.90;100106.41;5035552;28;20049;-72
2023/06/16 09:07:35;;;;;;;5.13;3.10;;;;;;;23.31;32.94;100111.53;5035698;28;20048;-72
2023/06/16 09:10:00;;;;;;;6.50;3.45;;;;;;;23.35;32.04;100106.91;5034954;28;20069;-72
2023/06/16 09:12:25;;;;;;;7.43;3.55;;;;;;;23.39;32.18;100107.03;5035084;28;20623;-72
2023/06/16 09:14:51;;;;;;;8.82;3.45;;;;;;;23.51;32.81;100109.06;5034887;28;20060;-77
2023/06/16 09:17:27;;;;;;;8.95;3.17;;;;;;;23.63;32.98;100105.50;5034840;28;20044;-76
2023/06/16 09:19:53;;;;;;;6.55;3.70;;;;;;;23.68;30.13;100096.91;5035144;28;20112;-77
2023/06/16 09:22:23;;;;;;;8.70;3.90;;;;;;;23.70;31.48;100104.91;5036217;28;20486;-83
2023/06/16 09:24:57;;;;;;;8.60;3.55;;;;;;;23.77;30.15;100105.97;5035381;28;20029;-72
2023/06/16 09:27:40;;;;;;;5.70;3.58;;;;;;;23.80;29.67;100101.66;5034848;28;20047;-72
2023/06/16 09:30:06;;;;;;;8.20;4.28;;;;;;;23.73;29.97;100104.22;5034224;28;20040;-72
2023/06/16 09:32:38;;;;;;;6.80;3.03;;;;;;;23.80;29.79;100098.88;5035122;28;20029;-72
2023/06/16 09:35:29;;;;;;;7.55;3.10;;;;;;;24.06;30.87;100106.09;5035912;28;20593;-72
2023/06/16 09:37:57;;;;;;;11.20;3.92;;;;;;;24.19;30.79;100106.88;5035164;28;20060;-72
2023/06/16 09:40:28;;;;;;;13.50;4.88;;;;;;;24.29;30.79;100102.81;5034980;28;20049;-72
2023/06/16 09:42:57;;;;;;;9.95;4.75;;;;;;;24.37;29.85;100099.09;5036152;28;20144;-75
2023/06/16 09:45:26;;;;;;;7.82;5.43;;;;;;;24.37;30.34;100096.31;5033534;28;20037;-71
2023/06/16 09:47:51;;;;;;;8.73;4.53;;;;;;;24.41;30.34;100098.41;5034409;28;20037;-72
2023/06/16 09:50:25;;;;;;;11.10;10.07;;;;;;;24.35;29.26;100097.81;5033768;28;20033;-72
2023/06/16 09:52:53;;;;;;;7.10;4.30;;;;;;;24.18;29.82;100091.34;5034130;28;20427;-72
2023/06/16 09:55:18;;;;;;;19.33;18.02;;;;;;;24.27;29.23;100096.78;5034074;28;20045;-72
2023/06/16 09:57:45;;;;;;;64.50;61.10;;;;;;;24.24;27.88;100094.72;5033927;28;20038;-72
2023/06/16 10:00:15;;;;;;;8.07;4.70;;;;;;;24.50;29.93;100093.50;5033830;28;20490;-72
2023/06/16 10:02:46;;;;;;;12.13;4.90;;;;;;;24.47;30.26;100091.41;5034058;28;20044;-73
2023/06/16 10:05:17;;;;;;;17.70;4.20;;;;;;;24.65;30.45;100086.34;5033569;28;20726;-75
2023/06/16 10:07:46;;;;;;;10.38;5.32;;;;;;;24.86;30.74;100090.09;5034367;28;20033;-73
2023/06/16 10:10:12;;;;;;;18.73;14.57;;;;;;;24.94;29.16;100091.94;5033652;28;20037;-72
2023/06/16 10:12:47;;;;;;;12.95;6.20;;;;;;;25.04;30.08;100091.47;5034188;28;20449;-72
2023/06/16 10:15:22;;;;;;;12.70;7.82;;;;;;;25.10;29.15;100080.06;5034231;28;20032;-72
2023/06/16 10:17:50;;;;;;;14.63;4.45;;;;;;;25.11;29.08;100079.69;5034303;28;20159;-72
2023/06/16 10:20:18;;;;;;;11.18;8.15;;;;;;;25.10;30.63;100082.84;5033682;28;20068;-73
2023/06/16 10:22:44;;;;;;;8.93;4.85;;;;;;;25.12;29.46;100084.09;5034543;28;20041;-72
2023/06/16 10:25:10;;;;;;;9.32;5.03;;;;;;;25.18;29.28;100076.31;5034423;28;20045;-74
2023/06/16 10:27:36;;;;;;;5.47;3.05;;;;;;;25.23;28.48;100073.22;5034573;28;20658;-73
2023/06/16 10:30:03;;;;;;;9.40;4.53;;;;;;;25.30;28.55;100070.63;5033643;28;20045;-74
2023/06/16 10:32:28;;;;;;;10.73;4.07;;;;;;;25.32;28.66;100072.25;5034223;28;20040;-73
2023/06/16 10:34:56;;;;;;;7.18;3.58;;;;;;;25.21;28.99;100077.53;5034361;28;20658;-73
2023/06/16 10:37:27;;;;;;;8.07;6.10;;;;;;;25.23;29.19;100067.66;5033843;28;20117;-73
2023/06/16 10:39:57;;;;;;;40.75;19.70;;;;;;;25.26;28.49;100066.91;5033770;28;20037;-72
2023/06/16 10:42:22;;;;;;;14.02;4.30;;;;;;;25.37;28.82;100063.59;5034149;28;20041;-72
2023/06/16 10:44:48;;;;;;;7.35;4.35;;;;;;;25.38;28.50;100070.81;5033793;28;20040;-73
2023/06/16 10:47:14;;;;;;;7.07;4.30;;;;;;;25.50;29.56;100059.56;5034004;28;20522;-73
2023/06/16 10:50:02;;;;;;;8.97;4.03;;;;;;;25.56;26.52;100059.28;5033707;28;20036;-73
2023/06/16 10:52:27;;;;;;;8.00;4.72;;;;;;;25.55;26.77;100058.47;5033782;28;20037;-73
2023/06/16 10:54:54;;;;;;;7.17;3.43;;;;;;;25.58;28.09;100057.78;5034110;28;20033;-74
2023/06/16 10:57:20;;;;;;;9.15;3.75;;;;;;;25.73;27.24;100053.34;5033871;28;20029;-74
2023/06/16 11:00:10;;;;;;;7.57;5.13;;;;;;;25.74;26.69;100055.00;5033292;28;20037;-73
2023/06/16 11:02:50;;;;;;;8.00;4.53;;;;;;;25.73;26.31;100047.00;5033311;28;20079;-73
2023/06/16 11:05:18;;;;;;;7.93;3.63;;;;;;;25.79;27.83;100050.31;5033142;28;20053;-73
2023/06/16 11:08:02;;;;;;;10.27;5.10;;;;;;;25.82;28.56;100055.16;5033336;28;20114;-74
2023/06/16 11:10:28;;;;;;;25.77;24.13;;;;;;;25.84;28.68;100052.81;5033228;28;20050;-73
2023/06/16 11:12:53;;;;;;;6.60;3.70;;;;;;;25.84;27.06;100053.63;5033044;28;20037;-73
2023/06/16 11:15:19;;;;;;;10.57;5.22;;;;;;;26.01;28.72;100051.63;5032890;28;20089;-72
2023/06/16 11:17:47;;;;;;;7.07;4.07;;;;;;;26.13;27.30;100050.69;5033204;28;20032;-74
2023/06/16 11:20:13;;;;;;;7.80;3.88;;;;;;;26.22;28.48;100044.88;5032615;28;20440;-72